createdAt,value
2023-07-05T00:12:25.583Z,5.2
2023-07-05T00:27:35.369Z,5.7
2023-07-05T00:42:45.488Z,6.2
2023-07-05T00:57:54.558Z,6
2023-07-05T01:13:04.333Z,6.8
2023-07-05T01:28:13.732Z,6
2023-07-05T01:43:23.597Z,5.9
2023-07-05T01:58:33.964Z,5.3
2023-07-05T02:13:43.406Z,5.3
2023-07-05T02:28:53.116Z,7.3
2023-07-05T02:44:02.544Z,6.4
2023-07-05T02:59:12.071Z,6.7
2023-07-05T03:14:21.995Z,7
2023-07-05T03:29:32.442Z,7.1
2023-07-05T03:44:42.777Z,7.4
2023-07-05T03:59:52.612Z,8.7
2023-07-05T04:15:02.343Z,8.4
2023-07-05T04:30:11.448Z,9.2
2023-07-05T04:45:21.661Z,8.4
2023-07-05T05:00:31.536Z,9.8
2023-07-05T05:15:41.248Z,9.8
2023-07-05T05:30:52.472Z,9.2
2023-07-05T05:46:03.459Z,7.7
2023-07-05T06:01:13.199Z,7.5
2023-07-05T06:16:23.037Z,6.1
2023-07-05T06:31:32.895Z,5
2023-07-05T06:46:43.018Z,3.6
2023-07-05T07:01:53.294Z,2.7
2023-07-05T07:17:03.371Z,2.8
2023-07-05T07:32:13.343Z,2.7
2023-07-05T07:47:22.831Z,3.5
2023-07-05T08:02:33.613Z,3
2023-07-05T08:17:44.047Z,3.4
2023-07-05T08:32:54.520Z,3.4
2023-07-05T08:48:05.281Z,2.6
2023-07-05T09:03:15.645Z,3
2023-07-05T09:18:26.044Z,2.8
2023-07-05T09:33:35.544Z,2.4
2023-07-05T09:48:45.906Z,2.2
2023-07-05T10:03:56.007Z,2.6
2023-07-05T10:19:06.632Z,2.4
2023-07-05T10:34:16.508Z,2.1
2023-07-05T10:49:25.653Z,2.2
2023-07-05T11:04:35.793Z,2.2
2023-07-05T11:19:46.250Z,1.8
2023-07-05T11:34:56.743Z,2
2023-07-05T11:50:09.914Z,2.2
2023-07-05T12:05:20.099Z,2.3
2023-07-05T12:20:29.725Z,2.1
2023-07-05T12:35:44.314Z,3.7
2023-07-05T12:50:54.381Z,2.8
2023-07-05T13:06:04.888Z,1.7
2023-07-05T13:21:14.676Z,1.9
2023-07-05T13:36:26.957Z,2.2
2023-07-05T13:51:35.781Z,2.4
2023-07-05T14:06:46.342Z,2.7
2023-07-05T14:21:56.456Z,2.2
2023-07-05T14:37:06.087Z,3.3
2023-07-05T14:52:15.661Z,2.4
2023-07-05T15:07:26.786Z,2.6
2023-07-05T15:22:35.890Z,2.5
2023-07-05T15:37:45.980Z,2.2
2023-07-05T15:52:54.912Z,2.7
2023-07-05T16:08:04.687Z,3
2023-07-05T16:23:14.954Z,2.5
2023-07-05T16:38:24.258Z,2.5
2023-07-05T16:53:34.163Z,2.6
2023-07-05T17:08:46.139Z,2.7
2023-07-05T17:23:55.955Z,2.8
2023-07-05T17:39:05.375Z,2.6
2023-07-05T17:54:15.111Z,2.9
2023-07-05T18:09:24.593Z,3.2
2023-07-05T18:24:34.571Z,3.1
2023-07-05T18:39:46.036Z,2.9
2023-07-05T18:54:55.969Z,2.4
2023-07-05T19:10:05.597Z,3.1
2023-07-05T19:25:15.116Z,2.8
2023-07-05T19:40:25.010Z,2.8
2023-07-05T19:55:34.529Z,2.9
2023-07-05T20:10:46.408Z,3.4
2023-07-05T20:25:56.057Z,3.5
2023-07-05T20:41:06.421Z,3.8
2023-07-05T20:56:16.674Z,3.1
2023-07-05T21:11:27.105Z,3.2
2023-07-05T21:26:36.339Z,3.6
2023-07-05T21:41:46.257Z,3.5
2023-07-05T21:56:55.472Z,3.1
2023-07-05T22:12:05.312Z,3.4
2023-07-05T22:27:14.768Z,3.6
2023-07-05T22:42:24.050Z,3.6
2023-07-05T22:57:33.043Z,3.6
2023-07-05T23:12:43.527Z,3.4
2023-07-05T23:27:53.095Z,4
2023-07-05T23:43:02.654Z,4.3
2023-07-05T23:58:12.092Z,4.4
